sensor_id;sensor_type;location;lat;lon;timestamp;temperature;humidity
14170;DHT22;7164;50.524;8.676;2022-07-03T00:01:43;16.90;99.90
14170;DHT22;7164;50.524;8.676;2022-07-03T00:04:09;16.90;99.90
14170;DHT22;7164;50.524;8.676;2022-07-03T00:06:35;16.80;99.90
14170;DHT22;7164;50.524;8.676;2022-07-03T00:09:03;16.80;99.90
14170;DHT22;7164;50.524;8.676;2022-07-03T00:11:29;16.70;99.90
14170;DHT22;7164;50.524;8.676;2022-07-03T00:13:55;16.70;99.90
14170;DHT22;7164;50.524;8.676;2022-07-03T00:16:21;16.70;99.90
14170;DHT22;7164;50.524;8.676;2022-07-03T00:18:47;16.70;99.90
14170;DHT22;7164;50.524;8.676;2022-07-03T00:21:17;16.70;99.90
14170;DHT22;7164;50.524;8.676;2022-07-03T00:23:44;16.50;99.90
14170;DHT22;7164;50.524;8.676;2022-07-03T00:26:13;16.50;99.90
14170;DHT22;7164;50.524;8.676;2022-07-03T00:28:40;16.40;99.90
14170;DHT22;7164;50.524;8.676;2022-07-03T00:31:07;16.30;99.90
14170;DHT22;7164;50.524;8.676;2022-07-03T00:33:35;16.30;99.90
14170;DHT22;7164;50.524;8.676;2022-07-03T00:36:02;16.30;99.90
14170;DHT22;7164;50.524;8.676;2022-07-03T00:38:28;16.30;99.90
14170;DHT22;7164;50.524;8.676;2022-07-03T00:40:53;16.30;99.90
14170;DHT22;7164;50.524;8.676;2022-07-03T00:43:19;16.30;99.90
14170;DHT22;7164;50.524;8.676;2022-07-03T00:45:48;16.20;99.90
14170;DHT22;7164;50.524;8.676;2022-07-03T00:48:16;16.20;99.90
14170;DHT22;7164;50.524;8.676;2022-07-03T00:50:52;16.20;99.90
14170;DHT22;7164;50.524;8.676;2022-07-03T00:53:28;16.20;99.90
14170;DHT22;7164;50.524;8.676;2022-07-03T00:55:55;16.10;99.90
14170;DHT22;7164;50.524;8.676;2022-07-03T00:58:21;16.00;99.90
14170;DHT22;7164;50.524;8.676;2022-07-03T01:00:50;15.90;99.90
14170;DHT22;7164;50.524;8.676;2022-07-03T01:03:18;15.90;99.90
14170;DHT22;7164;50.524;8.676;2022-07-03T01:05:49;15.80;99.90
14170;DHT22;7164;50.524;8.676;2022-07-03T01:08:51;15.80;99.90
14170;DHT22;7164;50.524;8.676;2022-07-03T01:11:21;15.80;99.90
14170;DHT22;7164;50.524;8.676;2022-07-03T01:17:03;15.70;99.90
14170;DHT22;7164;50.524;8.676;2022-07-03T01:19:36;15.60;99.90
14170;DHT22;7164;50.524;8.676;2022-07-03T01:27:48;15.50;99.90
14170;DHT22;7164;50.524;8.676;2022-07-03T01:30:18;15.50;99.90
14170;DHT22;7164;50.524;8.676;2022-07-03T01:32:46;15.50;99.90
14170;DHT22;7164;50.524;8.676;2022-07-03T01:35:14;15.50;99.90
14170;DHT22;7164;50.524;8.676;2022-07-03T01:37:41;15.50;99.90
14170;DHT22;7164;50.524;8.676;2022-07-03T01:40:07;15.50;99.90
14170;DHT22;7164;50.524;8.676;2022-07-03T01:42:35;15.50;99.90
14170;DHT22;7164;50.524;8.676;2022-07-03T01:45:08;15.50;99.90
14170;DHT22;7164;50.524;8.676;2022-07-03T01:47:34;15.40;99.90
14170;DHT22;7164;50.524;8.676;2022-07-03T01:50:01;15.50;99.90
14170;DHT22;7164;50.524;8.676;2022-07-03T01:52:31;15.50;99.90
14170;DHT22;7164;50.524;8.676;2022-07-03T01:55:00;15.40;99.90
14170;DHT22;7164;50.524;8.676;2022-07-03T01:57:41;15.30;99.90
14170;DHT22;7164;50.524;8.676;2022-07-03T02:00:08;15.20;99.90
14170;DHT22;7164;50.524;8.676;2022-07-03T02:02:43;15.30;99.90
14170;DHT22;7164;50.524;8.676;2022-07-03T02:05:17;15.20;99.90
14170;DHT22;7164;50.524;8.676;2022-07-03T02:10:33;15.10;99.90
14170;DHT22;7164;50.524;8.676;2022-07-03T02:13:08;15.00;99.90
14170;DHT22;7164;50.524;8.676;2022-07-03T02:15:43;14.90;99.90
14170;DHT22;7164;50.524;8.676;2022-07-03T02:18:25;15.00;99.90
14170;DHT22;7164;50.524;8.676;2022-07-03T02:21:18;15.00;99.90
14170;DHT22;7164;50.524;8.676;2022-07-03T02:26:28;14.90;99.90
14170;DHT22;7164;50.524;8.676;2022-07-03T02:29:02;14.80;99.90
14170;DHT22;7164;50.524;8.676;2022-07-03T02:31:34;14.80;99.90
14170;DHT22;7164;50.524;8.676;2022-07-03T02:34:04;14.70;99.90
14170;DHT22;7164;50.524;8.676;2022-07-03T02:36:32;14.70;99.90
14170;DHT22;7164;50.524;8.676;2022-07-03T02:38:59;14.80;99.90
14170;DHT22;7164;50.524;8.676;2022-07-03T02:41:37;14.80;99.90
14170;DHT22;7164;50.524;8.676;2022-07-03T02:44:14;14.70;99.90
14170;DHT22;7164;50.524;8.676;2022-07-03T02:47:14;14.70;99.90
14170;DHT22;7164;50.524;8.676;2022-07-03T03:01:16;14.70;99.90
14170;DHT22;7164;50.524;8.676;2022-07-03T03:03:53;14.60;99.90
14170;DHT22;7164;50.524;8.676;2022-07-03T03:06:21;14.60;99.90
14170;DHT22;7164;50.524;8.676;2022-07-03T03:08:51;14.50;99.90
14170;DHT22;7164;50.524;8.676;2022-07-03T03:14:00;14.50;99.90
14170;DHT22;7164;50.524;8.676;2022-07-03T03:16:29;14.60;99.90
14170;DHT22;7164;50.524;8.676;2022-07-03T03:18:55;14.50;99.90
14170;DHT22;7164;50.524;8.676;2022-07-03T03:21:23;14.50;99.90
14170;DHT22;7164;50.524;8.676;2022-07-03T03:23:52;14.40;99.90
14170;DHT22;7164;50.524;8.676;2022-07-03T03:26:22;14.40;99.90
14170;DHT22;7164;50.524;8.676;2022-07-03T03:28:49;14.40;99.90
14170;DHT22;7164;50.524;8.676;2022-07-03T03:31:15;14.40;99.90
14170;DHT22;7164;50.524;8.676;2022-07-03T03:33:46;14.50;99.90
14170;DHT22;7164;50.524;8.676;2022-07-03T03:36:13;14.70;99.90
14170;DHT22;7164;50.524;8.676;2022-07-03T03:38:40;14.70;99.90
14170;DHT22;7164;50.524;8.676;2022-07-03T03:41:06;14.80;99.90
14170;DHT22;7164;50.524;8.676;2022-07-03T03:43:33;14.70;99.90
14170;DHT22;7164;50.524;8.676;2022-07-03T03:46:00;14.70;99.90
14170;DHT22;7164;50.524;8.676;2022-07-03T03:48:32;14.80;99.90
14170;DHT22;7164;50.524;8.676;2022-07-03T03:50:59;14.90;99.90
14170;DHT22;7164;50.524;8.676;2022-07-03T03:53:27;14.90;99.90
14170;DHT22;7164;50.524;8.676;2022-07-03T03:56:08;14.90;99.90
14170;DHT22;7164;50.524;8.676;2022-07-03T03:58:36;15.00;99.90
14170;DHT22;7164;50.524;8.676;2022-07-03T04:01:33;15.00;99.90
14170;DHT22;7164;50.524;8.676;2022-07-03T04:03:58;15.00;99.90
14170;DHT22;7164;50.524;8.676;2022-07-03T04:06:25;15.10;99.90
14170;DHT22;7164;50.524;8.676;2022-07-03T04:08:51;15.30;99.90
14170;DHT22;7164;50.524;8.676;2022-07-03T04:11:17;15.40;99.90
14170;DHT22;7164;50.524;8.676;2022-07-03T04:13:42;15.60;99.90
14170;DHT22;7164;50.524;8.676;2022-07-03T04:16:08;15.90;99.90
14170;DHT22;7164;50.524;8.676;2022-07-03T04:18:34;16.10;99.90
14170;DHT22;7164;50.524;8.676;2022-07-03T04:21:00;16.30;99.90
14170;DHT22;7164;50.524;8.676;2022-07-03T04:23:26;16.60;99.90
14170;DHT22;7164;50.524;8.676;2022-07-03T04:25:51;16.90;99.90
14170;DHT22;7164;50.524;8.676;2022-07-03T04:28:17;17.10;99.90
14170;DHT22;7164;50.524;8.676;2022-07-03T04:30:43;17.30;99.90
14170;DHT22;7164;50.524;8.676;2022-07-03T04:33:08;17.60;99.90
14170;DHT22;7164;50.524;8.676;2022-07-03T04:35:34;17.70;99.90
14170;DHT22;7164;50.524;8.676;2022-07-03T04:37:59;18.00;99.90
14170;DHT22;7164;50.524;8.676;2022-07-03T04:40:25;18.20;99.90
14170;DHT22;7164;50.524;8.676;2022-07-03T04:42:51;18.50;99.90
14170;DHT22;7164;50.524;8.676;2022-07-03T04:45:16;18.80;99.90
14170;DHT22;7164;50.524;8.676;2022-07-03T04:47:42;19.20;99.90
14170;DHT22;7164;50.524;8.676;2022-07-03T04:50:07;19.50;99.90
14170;DHT22;7164;50.524;8.676;2022-07-03T04:52:33;19.70;99.90
14170;DHT22;7164;50.524;8.676;2022-07-03T04:54:59;19.80;99.90
14170;DHT22;7164;50.524;8.676;2022-07-03T04:57:24;20.00;99.90
14170;DHT22;7164;50.524;8.676;2022-07-03T04:59:50;20.30;99.90
14170;DHT22;7164;50.524;8.676;2022-07-03T05:02:15;20.50;99.90
14170;DHT22;7164;50.524;8.676;2022-07-03T05:04:41;20.60;99.90
14170;DHT22;7164;50.524;8.676;2022-07-03T05:07:07;21.00;99.90
14170;DHT22;7164;50.524;8.676;2022-07-03T05:09:32;21.20;99.90
14170;DHT22;7164;50.524;8.676;2022-07-03T05:11:58;21.50;99.90
14170;DHT22;7164;50.524;8.676;2022-07-03T05:14:23;21.80;99.90
14170;DHT22;7164;50.524;8.676;2022-07-03T05:16:49;22.00;99.90
14170;DHT22;7164;50.524;8.676;2022-07-03T05:19:14;22.40;99.90
14170;DHT22;7164;50.524;8.676;2022-07-03T05:21:40;22.70;99.90
14170;DHT22;7164;50.524;8.676;2022-07-03T05:24:06;23.10;99.90
14170;DHT22;7164;50.524;8.676;2022-07-03T05:26:32;23.40;99.90
14170;DHT22;7164;50.524;8.676;2022-07-03T05:28:57;23.70;99.90
14170;DHT22;7164;50.524;8.676;2022-07-03T05:31:23;24.00;99.90
14170;DHT22;7164;50.524;8.676;2022-07-03T05:33:48;24.40;99.90
14170;DHT22;7164;50.524;8.676;2022-07-03T05:36:14;24.60;99.90
14170;DHT22;7164;50.524;8.676;2022-07-03T05:38:40;24.90;99.90
14170;DHT22;7164;50.524;8.676;2022-07-03T05:41:24;25.10;99.90
14170;DHT22;7164;50.524;8.676;2022-07-03T05:43:49;25.50;99.90
14170;DHT22;7164;50.524;8.676;2022-07-03T05:46:15;25.80;99.90
14170;DHT22;7164;50.524;8.676;2022-07-03T05:48:41;26.20;99.90
14170;DHT22;7164;50.524;8.676;2022-07-03T05:51:06;26.50;99.90
14170;DHT22;7164;50.524;8.676;2022-07-03T05:53:32;27.00;99.90
14170;DHT22;7164;50.524;8.676;2022-07-03T05:55:58;27.40;99.90
14170;DHT22;7164;50.524;8.676;2022-07-03T05:58:24;27.90;99.90
14170;DHT22;7164;50.524;8.676;2022-07-03T06:00:49;28.10;99.90
14170;DHT22;7164;50.524;8.676;2022-07-03T06:03:15;28.50;99.90
14170;DHT22;7164;50.524;8.676;2022-07-03T06:05:40;28.80;99.90
14170;DHT22;7164;50.524;8.676;2022-07-03T06:08:06;29.20;99.90
14170;DHT22;7164;50.524;8.676;2022-07-03T06:10:32;29.50;99.50
14170;DHT22;7164;50.524;8.676;2022-07-03T06:12:58;30.00;98.90
14170;DHT22;7164;50.524;8.676;2022-07-03T06:15:24;30.20;97.40
14170;DHT22;7164;50.524;8.676;2022-07-03T06:17:49;30.70;98.20
14170;DHT22;7164;50.524;8.676;2022-07-03T06:20:15;31.10;96.20
14170;DHT22;7164;50.524;8.676;2022-07-03T06:22:41;31.20;93.90
14170;DHT22;7164;50.524;8.676;2022-07-03T06:25:07;30.90;94.50
14170;DHT22;7164;50.524;8.676;2022-07-03T06:27:33;30.70;93.80
14170;DHT22;7164;50.524;8.676;2022-07-03T06:29:58;31.10;93.60
14170;DHT22;7164;50.524;8.676;2022-07-03T06:32:25;31.60;92.50
14170;DHT22;7164;50.524;8.676;2022-07-03T06:34:50;32.10;92.80
14170;DHT22;7164;50.524;8.676;2022-07-03T06:37:16;32.50;91.10
14170;DHT22;7164;50.524;8.676;2022-07-03T06:39:42;33.10;90.30
14170;DHT22;7164;50.524;8.676;2022-07-03T06:42:07;33.30;89.10
14170;DHT22;7164;50.524;8.676;2022-07-03T06:44:33;33.90;85.60
14170;DHT22;7164;50.524;8.676;2022-07-03T06:46:59;34.20;85.60
14170;DHT22;7164;50.524;8.676;2022-07-03T06:49:29;34.40;81.50
14170;DHT22;7164;50.524;8.676;2022-07-03T06:51:54;34.80;82.00
14170;DHT22;7164;50.524;8.676;2022-07-03T06:54:20;34.80;81.80
14170;DHT22;7164;50.524;8.676;2022-07-03T06:56:46;35.40;79.60
14170;DHT22;7164;50.524;8.676;2022-07-03T06:59:11;35.90;76.80
14170;DHT22;7164;50.524;8.676;2022-07-03T07:01:37;36.50;75.80
14170;DHT22;7164;50.524;8.676;2022-07-03T07:04:02;36.50;75.00
14170;DHT22;7164;50.524;8.676;2022-07-03T07:06:29;36.70;71.40
14170;DHT22;7164;50.524;8.676;2022-07-03T07:08:54;37.10;72.80
14170;DHT22;7164;50.524;8.676;2022-07-03T07:11:20;36.50;71.10
14170;DHT22;7164;50.524;8.676;2022-07-03T07:13:45;36.90;70.20
14170;DHT22;7164;50.524;8.676;2022-07-03T07:16:11;37.40;68.90
14170;DHT22;7164;50.524;8.676;2022-07-03T07:18:39;38.00;68.10
14170;DHT22;7164;50.524;8.676;2022-07-03T07:21:04;38.10;66.10
14170;DHT22;7164;50.524;8.676;2022-07-03T07:23:30;38.80;65.80
14170;DHT22;7164;50.524;8.676;2022-07-03T07:26:06;38.90;64.30
14170;DHT22;7164;50.524;8.676;2022-07-03T07:28:32;39.40;65.80
14170;DHT22;7164;50.524;8.676;2022-07-03T07:31:00;39.90;66.10
14170;DHT22;7164;50.524;8.676;2022-07-03T07:33:26;40.50;60.90
14170;DHT22;7164;50.524;8.676;2022-07-03T07:35:51;40.60;59.40
14170;DHT22;7164;50.524;8.676;2022-07-03T07:38:17;40.20;59.60
14170;DHT22;7164;50.524;8.676;2022-07-03T07:40:43;40.70;59.30
14170;DHT22;7164;50.524;8.676;2022-07-03T07:43:09;41.00;59.00
14170;DHT22;7164;50.524;8.676;2022-07-03T07:45:34;41.40;57.20
14170;DHT22;7164;50.524;8.676;2022-07-03T07:48:00;41.30;57.80
14170;DHT22;7164;50.524;8.676;2022-07-03T07:50:26;41.40;57.10
14170;DHT22;7164;50.524;8.676;2022-07-03T07:52:52;41.40;55.90
14170;DHT22;7164;50.524;8.676;2022-07-03T07:55:18;41.30;56.20
14170;DHT22;7164;50.524;8.676;2022-07-03T07:57:46;41.70;56.00
14170;DHT22;7164;50.524;8.676;2022-07-03T08:00:15;42.10;55.90
14170;DHT22;7164;50.524;8.676;2022-07-03T08:02:41;41.50;55.40
14170;DHT22;7164;50.524;8.676;2022-07-03T08:05:26;42.10;55.40
14170;DHT22;7164;50.524;8.676;2022-07-03T08:08:08;43.00;53.60
14170;DHT22;7164;50.524;8.676;2022-07-03T08:10:35;43.40;52.10
14170;DHT22;7164;50.524;8.676;2022-07-03T08:13:01;43.40;52.40
14170;DHT22;7164;50.524;8.676;2022-07-03T08:15:27;42.90;52.10
14170;DHT22;7164;50.524;8.676;2022-07-03T08:17:53;41.90;53.70
14170;DHT22;7164;50.524;8.676;2022-07-03T08:20:18;41.90;51.70
14170;DHT22;7164;50.524;8.676;2022-07-03T08:22:44;42.10;53.20
14170;DHT22;7164;50.524;8.676;2022-07-03T08:25:10;42.60;51.70
14170;DHT22;7164;50.524;8.676;2022-07-03T08:27:54;43.40;51.60
14170;DHT22;7164;50.524;8.676;2022-07-03T08:30:20;43.60;51.90
14170;DHT22;7164;50.524;8.676;2022-07-03T08:32:47;44.10;50.50
14170;DHT22;7164;50.524;8.676;2022-07-03T08:35:14;44.20;51.20
14170;DHT22;7164;50.524;8.676;2022-07-03T08:37:40;44.60;49.50
14170;DHT22;7164;50.524;8.676;2022-07-03T08:40:10;44.30;49.60
14170;DHT22;7164;50.524;8.676;2022-07-03T08:42:45;44.20;49.10
14170;DHT22;7164;50.524;8.676;2022-07-03T08:45:18;44.50;48.90
14170;DHT22;7164;50.524;8.676;2022-07-03T08:47:46;44.70;48.00
14170;DHT22;7164;50.524;8.676;2022-07-03T08:50:13;45.30;48.70
14170;DHT22;7164;50.524;8.676;2022-07-03T08:52:40;45.20;47.50
14170;DHT22;7164;50.524;8.676;2022-07-03T08:55:06;45.60;47.60
14170;DHT22;7164;50.524;8.676;2022-07-03T08:57:33;45.80;47.70
14170;DHT22;7164;50.524;8.676;2022-07-03T09:00:03;45.80;47.20
14170;DHT22;7164;50.524;8.676;2022-07-03T09:02:30;45.60;47.50
14170;DHT22;7164;50.524;8.676;2022-07-03T09:04:58;45.80;47.90
14170;DHT22;7164;50.524;8.676;2022-07-03T09:07:25;45.70;47.50
14170;DHT22;7164;50.524;8.676;2022-07-03T09:09:51;45.60;46.40
14170;DHT22;7164;50.524;8.676;2022-07-03T09:12:17;45.60;45.90
14170;DHT22;7164;50.524;8.676;2022-07-03T09:14:43;45.50;45.60
14170;DHT22;7164;50.524;8.676;2022-07-03T09:17:09;45.10;45.50
14170;DHT22;7164;50.524;8.676;2022-07-03T09:19:46;45.20;45.60
14170;DHT22;7164;50.524;8.676;2022-07-03T09:22:26;45.60;45.40
14170;DHT22;7164;50.524;8.676;2022-07-03T09:24:54;45.80;45.20
14170;DHT22;7164;50.524;8.676;2022-07-03T09:27:27;45.70;44.70
14170;DHT22;7164;50.524;8.676;2022-07-03T09:29:58;45.90;43.30
14170;DHT22;7164;50.524;8.676;2022-07-03T09:32:25;46.60;43.70
14170;DHT22;7164;50.524;8.676;2022-07-03T09:37:48;47.00;41.20
14170;DHT22;7164;50.524;8.676;2022-07-03T09:40:13;46.70;42.80
14170;DHT22;7164;50.524;8.676;2022-07-03T09:42:39;47.20;42.50
14170;DHT22;7164;50.524;8.676;2022-07-03T09:45:05;47.30;41.40
14170;DHT22;7164;50.524;8.676;2022-07-03T09:47:31;47.10;41.20
14170;DHT22;7164;50.524;8.676;2022-07-03T09:52:46;46.90;39.90
14170;DHT22;7164;50.524;8.676;2022-07-03T09:57:42;47.80;39.90
14170;DHT22;7164;50.524;8.676;2022-07-03T10:02:56;47.70;40.10
14170;DHT22;7164;50.524;8.676;2022-07-03T10:05:24;47.00;39.90
14170;DHT22;7164;50.524;8.676;2022-07-03T10:07:55;46.50;41.10
14170;DHT22;7164;50.524;8.676;2022-07-03T10:10:22;46.60;40.30
14170;DHT22;7164;50.524;8.676;2022-07-03T10:12:49;46.70;40.70
14170;DHT22;7164;50.524;8.676;2022-07-03T10:15:16;46.10;40.80
14170;DHT22;7164;50.524;8.676;2022-07-03T10:17:42;46.40;40.90
14170;DHT22;7164;50.524;8.676;2022-07-03T10:20:13;46.90;40.50
14170;DHT22;7164;50.524;8.676;2022-07-03T10:22:41;46.70;40.20
14170;DHT22;7164;50.524;8.676;2022-07-03T10:25:08;45.30;40.70
14170;DHT22;7164;50.524;8.676;2022-07-03T10:27:35;44.40;41.20
14170;DHT22;7164;50.524;8.676;2022-07-03T10:30:02;44.10;42.60
14170;DHT22;7164;50.524;8.676;2022-07-03T10:32:28;44.50;42.20
14170;DHT22;7164;50.524;8.676;2022-07-03T10:34:54;44.30;42.60
14170;DHT22;7164;50.524;8.676;2022-07-03T10:37:21;43.90;43.20
14170;DHT22;7164;50.524;8.676;2022-07-03T10:40:29;43.40;42.10
14170;DHT22;7164;50.524;8.676;2022-07-03T10:43:28;42.20;43.80
14170;DHT22;7164;50.524;8.676;2022-07-03T10:46:14;40.70;45.30
14170;DHT22;7164;50.524;8.676;2022-07-03T10:51:59;39.00;46.30
14170;DHT22;7164;50.524;8.676;2022-07-03T10:54:29;38.30;46.80
14170;DHT22;7164;50.524;8.676;2022-07-03T11:13:01;35.60;50.50
14170;DHT22;7164;50.524;8.676;2022-07-03T11:15:33;35.30;51.20
14170;DHT22;7164;50.524;8.676;2022-07-03T11:33:45;33.40;53.80
14170;DHT22;7164;50.524;8.676;2022-07-03T11:36:32;33.50;53.30
14170;DHT22;7164;50.524;8.676;2022-07-03T11:44:04;33.80;53.40
14170;DHT22;7164;50.524;8.676;2022-07-03T11:46:31;33.90;54.40
14170;DHT22;7164;50.524;8.676;2022-07-03T11:51:29;33.80;54.30
14170;DHT22;7164;50.524;8.676;2022-07-03T11:53:55;33.70;53.60
14170;DHT22;7164;50.524;8.676;2022-07-03T11:56:21;33.60;54.20
14170;DHT22;7164;50.524;8.676;2022-07-03T11:58:57;33.40;54.80
14170;DHT22;7164;50.524;8.676;2022-07-03T12:06:36;33.10;55.20
14170;DHT22;7164;50.524;8.676;2022-07-03T12:09:11;32.90;54.90
14170;DHT22;7164;50.524;8.676;2022-07-03T12:11:37;32.70;54.40
14170;DHT22;7164;50.524;8.676;2022-07-03T12:14:02;32.70;54.60
14170;DHT22;7164;50.524;8.676;2022-07-03T12:16:32;32.60;54.70
14170;DHT22;7164;50.524;8.676;2022-07-03T12:19:04;32.60;54.20
14170;DHT22;7164;50.524;8.676;2022-07-03T12:21:36;32.50;54.70
14170;DHT22;7164;50.524;8.676;2022-07-03T12:24:12;32.60;54.70
14170;DHT22;7164;50.524;8.676;2022-07-03T12:26:38;32.50;53.90
14170;DHT22;7164;50.524;8.676;2022-07-03T12:29:18;32.50;54.50
14170;DHT22;7164;50.524;8.676;2022-07-03T12:31:45;32.40;54.60
14170;DHT22;7164;50.524;8.676;2022-07-03T12:34:12;32.40;55.10
14170;DHT22;7164;50.524;8.676;2022-07-03T12:36:38;32.30;55.20
14170;DHT22;7164;50.524;8.676;2022-07-03T12:39:04;32.00;55.80
14170;DHT22;7164;50.524;8.676;2022-07-03T12:41:30;32.00;55.50
14170;DHT22;7164;50.524;8.676;2022-07-03T12:43:58;31.90;55.90
14170;DHT22;7164;50.524;8.676;2022-07-03T12:46:41;32.00;56.30
14170;DHT22;7164;50.524;8.676;2022-07-03T12:49:09;32.00;56.00
14170;DHT22;7164;50.524;8.676;2022-07-03T12:51:53;31.90;55.60
14170;DHT22;7164;50.524;8.676;2022-07-03T12:54:33;31.90;55.10
14170;DHT22;7164;50.524;8.676;2022-07-03T12:57:06;31.90;55.80
14170;DHT22;7164;50.524;8.676;2022-07-03T13:00:21;31.70;55.10
14170;DHT22;7164;50.524;8.676;2022-07-03T13:02:48;31.60;54.80
14170;DHT22;7164;50.524;8.676;2022-07-03T13:05:15;31.40;55.00
14170;DHT22;7164;50.524;8.676;2022-07-03T13:07:42;31.40;54.80
14170;DHT22;7164;50.524;8.676;2022-07-03T13:10:08;31.60;55.40
14170;DHT22;7164;50.524;8.676;2022-07-03T13:12:35;31.50;54.30
14170;DHT22;7164;50.524;8.676;2022-07-03T13:15:10;31.30;54.70
14170;DHT22;7164;50.524;8.676;2022-07-03T13:22:50;31.30;55.90
14170;DHT22;7164;50.524;8.676;2022-07-03T13:25:16;31.10;55.50
14170;DHT22;7164;50.524;8.676;2022-07-03T13:27:42;31.10;56.10
14170;DHT22;7164;50.524;8.676;2022-07-03T13:30:11;31.00;55.90
14170;DHT22;7164;50.524;8.676;2022-07-03T13:32:37;30.90;56.20
14170;DHT22;7164;50.524;8.676;2022-07-03T13:35:03;30.90;56.60
14170;DHT22;7164;50.524;8.676;2022-07-03T13:37:28;30.80;56.50
14170;DHT22;7164;50.524;8.676;2022-07-03T13:39:54;30.80;55.90
14170;DHT22;7164;50.524;8.676;2022-07-03T13:42:19;30.80;56.10
14170;DHT22;7164;50.524;8.676;2022-07-03T13:48:08;30.90;55.60
14170;DHT22;7164;50.524;8.676;2022-07-03T13:50:33;30.80;55.90
14170;DHT22;7164;50.524;8.676;2022-07-03T13:52:59;30.80;55.40
14170;DHT22;7164;50.524;8.676;2022-07-03T13:55:25;30.80;55.90
14170;DHT22;7164;50.524;8.676;2022-07-03T13:57:50;30.80;56.30
14170;DHT22;7164;50.524;8.676;2022-07-03T14:00:16;30.70;55.40
14170;DHT22;7164;50.524;8.676;2022-07-03T14:02:42;30.70;54.90
14170;DHT22;7164;50.524;8.676;2022-07-03T14:05:08;30.70;55.40
14170;DHT22;7164;50.524;8.676;2022-07-03T14:07:34;30.70;55.10
14170;DHT22;7164;50.524;8.676;2022-07-03T14:10:00;30.70;55.70
14170;DHT22;7164;50.524;8.676;2022-07-03T14:12:26;30.60;56.80
14170;DHT22;7164;50.524;8.676;2022-07-03T14:14:52;30.40;56.40
14170;DHT22;7164;50.524;8.676;2022-07-03T14:17:17;30.30;56.00
14170;DHT22;7164;50.524;8.676;2022-07-03T14:19:43;30.30;56.60
14170;DHT22;7164;50.524;8.676;2022-07-03T14:22:10;30.30;56.50
14170;DHT22;7164;50.524;8.676;2022-07-03T14:24:35;30.30;56.10
14170;DHT22;7164;50.524;8.676;2022-07-03T14:27:01;30.20;55.60
14170;DHT22;7164;50.524;8.676;2022-07-03T14:29:45;30.30;55.30
14170;DHT22;7164;50.524;8.676;2022-07-03T14:32:29;30.30;55.10
14170;DHT22;7164;50.524;8.676;2022-07-03T14:34:55;30.30;55.00
14170;DHT22;7164;50.524;8.676;2022-07-03T14:37:22;30.30;54.60
14170;DHT22;7164;50.524;8.676;2022-07-03T14:39:48;30.30;55.70
14170;DHT22;7164;50.524;8.676;2022-07-03T14:42:14;30.40;55.00
14170;DHT22;7164;50.524;8.676;2022-07-03T14:44:40;30.30;54.40
14170;DHT22;7164;50.524;8.676;2022-07-03T14:47:06;30.40;54.60
14170;DHT22;7164;50.524;8.676;2022-07-03T14:49:32;30.30;53.60
14170;DHT22;7164;50.524;8.676;2022-07-03T14:52:06;30.20;54.50
14170;DHT22;7164;50.524;8.676;2022-07-03T14:54:32;30.30;52.70
14170;DHT22;7164;50.524;8.676;2022-07-03T14:57:02;30.30;51.10
14170;DHT22;7164;50.524;8.676;2022-07-03T15:02:04;30.50;51.00
14170;DHT22;7164;50.524;8.676;2022-07-03T15:06:59;30.70;51.90
14170;DHT22;7164;50.524;8.676;2022-07-03T15:09:32;30.70;52.90
14170;DHT22;7164;50.524;8.676;2022-07-03T15:12:03;30.60;53.10
14170;DHT22;7164;50.524;8.676;2022-07-03T15:14:49;30.60;53.20
14170;DHT22;7164;50.524;8.676;2022-07-03T15:17:17;30.40;52.80
14170;DHT22;7164;50.524;8.676;2022-07-03T15:19:47;30.30;52.80
14170;DHT22;7164;50.524;8.676;2022-07-03T15:22:14;30.40;52.90
14170;DHT22;7164;50.524;8.676;2022-07-03T15:24:43;30.30;52.30
14170;DHT22;7164;50.524;8.676;2022-07-03T15:27:11;30.30;52.60
14170;DHT22;7164;50.524;8.676;2022-07-03T15:29:38;30.30;53.40
14170;DHT22;7164;50.524;8.676;2022-07-03T15:32:05;30.20;54.00
14170;DHT22;7164;50.524;8.676;2022-07-03T15:34:30;30.00;54.10
14170;DHT22;7164;50.524;8.676;2022-07-03T15:43:06;30.00;53.20
14170;DHT22;7164;50.524;8.676;2022-07-03T15:45:47;30.00;54.40
14170;DHT22;7164;50.524;8.676;2022-07-03T15:51:01;29.90;54.50
14170;DHT22;7164;50.524;8.676;2022-07-03T15:53:30;29.90;54.50
14170;DHT22;7164;50.524;8.676;2022-07-03T15:56:04;29.90;54.80
14170;DHT22;7164;50.524;8.676;2022-07-03T15:58:33;29.90;54.50
14170;DHT22;7164;50.524;8.676;2022-07-03T16:01:05;29.90;53.60
14170;DHT22;7164;50.524;8.676;2022-07-03T16:04:06;30.00;54.70
14170;DHT22;7164;50.524;8.676;2022-07-03T16:06:33;30.00;54.70
14170;DHT22;7164;50.524;8.676;2022-07-03T16:08:59;30.00;54.10
14170;DHT22;7164;50.524;8.676;2022-07-03T16:11:25;30.00;55.00
14170;DHT22;7164;50.524;8.676;2022-07-03T16:13:53;30.00;54.70
14170;DHT22;7164;50.524;8.676;2022-07-03T16:16:24;29.90;54.70
14170;DHT22;7164;50.524;8.676;2022-07-03T16:18:51;29.80;54.80
14170;DHT22;7164;50.524;8.676;2022-07-03T16:21:19;29.70;54.70
14170;DHT22;7164;50.524;8.676;2022-07-03T16:23:48;29.70;54.90
14170;DHT22;7164;50.524;8.676;2022-07-03T16:26:15;29.70;54.50
14170;DHT22;7164;50.524;8.676;2022-07-03T16:28:41;29.70;55.20
14170;DHT22;7164;50.524;8.676;2022-07-03T16:31:10;29.80;54.80
14170;DHT22;7164;50.524;8.676;2022-07-03T16:33:36;29.80;55.20
14170;DHT22;7164;50.524;8.676;2022-07-03T16:36:14;29.90;54.90
14170;DHT22;7164;50.524;8.676;2022-07-03T16:38:50;29.90;54.80
14170;DHT22;7164;50.524;8.676;2022-07-03T16:41:17;29.90;54.30
14170;DHT22;7164;50.524;8.676;2022-07-03T16:43:47;29.90;54.50
14170;DHT22;7164;50.524;8.676;2022-07-03T16:46:16;29.80;54.20
14170;DHT22;7164;50.524;8.676;2022-07-03T16:48:48;29.80;54.20
14170;DHT22;7164;50.524;8.676;2022-07-03T16:51:18;29.70;54.00
14170;DHT22;7164;50.524;8.676;2022-07-03T16:53:44;29.60;54.20
14170;DHT22;7164;50.524;8.676;2022-07-03T16:56:11;29.60;54.40
14170;DHT22;7164;50.524;8.676;2022-07-03T16:58:38;29.50;54.80
14170;DHT22;7164;50.524;8.676;2022-07-03T17:01:06;29.40;54.50
14170;DHT22;7164;50.524;8.676;2022-07-03T17:03:33;29.40;54.90
14170;DHT22;7164;50.524;8.676;2022-07-03T17:05:59;29.40;54.90
14170;DHT22;7164;50.524;8.676;2022-07-03T17:08:26;29.40;54.70
14170;DHT22;7164;50.524;8.676;2022-07-03T17:10:53;29.30;54.60
14170;DHT22;7164;50.524;8.676;2022-07-03T17:13:20;29.30;55.00
14170;DHT22;7164;50.524;8.676;2022-07-03T17:15:46;29.30;55.40
14170;DHT22;7164;50.524;8.676;2022-07-03T17:18:13;29.20;56.00
14170;DHT22;7164;50.524;8.676;2022-07-03T17:20:41;29.10;55.30
14170;DHT22;7164;50.524;8.676;2022-07-03T17:23:14;29.10;55.70
14170;DHT22;7164;50.524;8.676;2022-07-03T17:31:35;28.80;56.20
14170;DHT22;7164;50.524;8.676;2022-07-03T17:34:04;28.80;56.10
14170;DHT22;7164;50.524;8.676;2022-07-03T17:36:32;28.80;56.20
14170;DHT22;7164;50.524;8.676;2022-07-03T17:38:58;28.80;56.60
14170;DHT22;7164;50.524;8.676;2022-07-03T17:41:29;28.80;57.00
14170;DHT22;7164;50.524;8.676;2022-07-03T17:43:56;28.70;56.50
14170;DHT22;7164;50.524;8.676;2022-07-03T17:46:23;28.70;56.40
14170;DHT22;7164;50.524;8.676;2022-07-03T17:48:51;28.70;56.60
14170;DHT22;7164;50.524;8.676;2022-07-03T17:51:17;28.60;56.90